createdAt,value
2019-05-09T00:00:23.332Z,8.70
2019-05-09T00:02:54.107Z,8.70
2019-05-09T00:05:25.430Z,8.80
2019-05-09T00:07:57.610Z,8.90
2019-05-09T00:10:39.284Z,9.00
2019-05-09T00:13:03.172Z,9.00
2019-05-09T00:15:33.370Z,9.00
2019-05-09T00:18:04.560Z,9.00
2019-05-09T00:21:05.650Z,9.00
2019-05-09T00:23:35.764Z,9.10
2019-05-09T00:26:10.175Z,9.20
2019-05-09T00:28:44.109Z,9.20
2019-05-09T00:31:43.786Z,9.20
2019-05-09T00:34:24.183Z,9.20
2019-05-09T00:36:55.568Z,9.30
2019-05-09T00:39:25.875Z,9.40
2019-05-09T00:41:56.410Z,9.40
2019-05-09T00:44:29.442Z,9.50
2019-05-09T00:47:21.303Z,9.50
2019-05-09T00:49:54.284Z,9.50
2019-05-09T00:52:26.766Z,9.60
2019-05-09T00:54:58.887Z,9.70
2019-05-09T00:57:35.342Z,9.60
2019-05-09T01:00:14.511Z,9.70
2019-05-09T01:02:43.736Z,9.70
2019-05-09T01:05:14.175Z,9.70
2019-05-09T01:07:47.481Z,9.60
2019-05-09T01:10:18.241Z,9.70
2019-05-09T01:12:48.353Z,9.70
2019-05-09T01:15:19.280Z,9.70
2019-05-09T01:17:53.539Z,9.70
2019-05-09T01:20:24.277Z,9.70
2019-05-09T01:22:54.983Z,9.70
2019-05-09T01:25:25.894Z,9.80
2019-05-09T01:27:58.522Z,9.80
2019-05-09T01:30:28.659Z,9.70
2019-05-09T01:33:19.431Z,9.70
2019-05-09T01:35:49.900Z,9.70
2019-05-09T01:38:23.354Z,9.70
2019-05-09T01:40:54.513Z,9.70
2019-05-09T01:43:33.760Z,9.70
2019-05-09T01:46:06.516Z,9.70
2019-05-09T01:48:36.968Z,9.60
2019-05-09T01:51:07.361Z,9.60
2019-05-09T01:53:45.622Z,9.60
2019-05-09T01:56:18.562Z,9.60
2019-05-09T01:58:50.088Z,9.50
2019-05-09T02:01:24.037Z,9.40
2019-05-09T02:03:57.768Z,9.40
2019-05-09T02:06:28.986Z,9.50
2019-05-09T02:09:03.527Z,9.50
2019-05-09T02:11:42.422Z,9.50
2019-05-09T02:14:08.088Z,9.50
2019-05-09T02:17:03.240Z,9.50
2019-05-09T02:19:39.432Z,9.40
2019-05-09T02:22:27.834Z,9.40
2019-05-09T02:25:04.297Z,9.40
2019-05-09T02:27:40.297Z,9.30
2019-05-09T02:30:14.665Z,9.30
2019-05-09T02:32:44.979Z,9.10
2019-05-09T02:35:17.760Z,9.00
2019-05-09T02:37:50.018Z,8.90
2019-05-09T02:40:20.953Z,8.80
2019-05-09T02:42:59.021Z,8.70
2019-05-09T02:45:31.084Z,8.60
2019-05-09T02:48:01.162Z,8.50
2019-05-09T02:50:34.965Z,8.40
2019-05-09T02:53:08.009Z,8.50
2019-05-09T02:55:39.718Z,8.50
2019-05-09T02:58:11.788Z,8.50
2019-05-09T03:03:31.600Z,8.60
2019-05-09T03:06:02.857Z,8.60
2019-05-09T03:08:38.217Z,8.60
2019-05-09T03:11:09.677Z,8.50
2019-05-09T03:13:40.560Z,8.50
2019-05-09T03:16:13.800Z,8.40
2019-05-09T03:18:43.903Z,8.40
2019-05-09T03:21:29.457Z,8.30
2019-05-09T03:23:59.594Z,8.10
2019-05-09T03:26:34.855Z,7.90
2019-05-09T03:29:11.010Z,7.80
2019-05-09T03:31:41.670Z,7.60
2019-05-09T03:34:11.787Z,7.60
2019-05-09T03:36:42.270Z,7.40
2019-05-09T03:39:12.610Z,7.20
2019-05-09T03:41:43.724Z,7.10
2019-05-09T03:44:13.883Z,7.00
2019-05-09T03:47:00.429Z,6.90
2019-05-09T03:49:30.090Z,6.90
2019-05-09T03:52:04.878Z,6.90
2019-05-09T03:54:37.362Z,6.80
2019-05-09T03:57:24.189Z,6.70
2019-05-09T03:59:54.276Z,6.60
2019-05-09T04:02:28.172Z,6.50
2019-05-09T04:05:03.255Z,6.50
2019-05-09T04:07:34.672Z,6.50
2019-05-09T04:10:07.590Z,6.60
2019-05-09T04:12:52.899Z,6.50
2019-05-09T04:15:13.897Z,6.50
2019-05-09T04:17:44.485Z,6.60
2019-05-09T04:20:17.644Z,6.60
2019-05-09T04:22:50.332Z,6.60
2019-05-09T04:25:27.427Z,6.70
2019-05-09T04:27:58.442Z,6.70
2019-05-09T04:30:30.782Z,6.90
2019-05-09T04:33:02.506Z,6.90
2019-05-09T04:35:32.954Z,6.80
2019-05-09T04:38:09.034Z,6.70
2019-05-09T04:40:44.700Z,6.80
2019-05-09T04:43:18.722Z,6.80
2019-05-09T04:45:53.348Z,6.80
2019-05-09T04:48:32.521Z,6.90
2019-05-09T04:51:07.621Z,6.90
2019-05-09T04:53:48.026Z,7.00
2019-05-09T04:56:23.562Z,7.20
2019-05-09T04:58:54.072Z,7.30
2019-05-09T05:01:54.087Z,7.50
2019-05-09T05:04:28.264Z,7.70
2019-05-09T05:07:04.519Z,7.90
2019-05-09T05:09:38.093Z,8.10
2019-05-09T05:12:10.108Z,8.30
2019-05-09T05:14:47.431Z,8.50
2019-05-09T05:17:17.963Z,8.70
2019-05-09T05:19:50.603Z,8.90
2019-05-09T05:22:48.855Z,9.10
2019-05-09T05:25:21.774Z,9.20
2019-05-09T05:27:58.051Z,9.40
2019-05-09T05:30:29.197Z,9.50
2019-05-09T05:33:08.127Z,9.70
2019-05-09T05:35:43.358Z,9.70
2019-05-09T05:38:13.901Z,9.80
2019-05-09T05:40:46.378Z,10.00
2019-05-09T05:43:18.457Z,10.10
2019-05-09T05:46:07.725Z,10.20
2019-05-09T05:48:40.368Z,10.20
2019-05-09T05:51:10.633Z,10.30
2019-05-09T05:53:40.778Z,10.50
2019-05-09T05:56:10.962Z,10.60
2019-05-09T05:58:41.135Z,10.60
2019-05-09T06:01:11.536Z,10.80
2019-05-09T06:03:44.399Z,10.90
2019-05-09T06:06:14.641Z,10.90
2019-05-09T06:08:48.521Z,11.00
2019-05-09T06:11:20.725Z,11.10
2019-05-09T06:13:56.943Z,11.10
2019-05-09T06:16:25.249Z,11.10
2019-05-09T06:18:58.333Z,11.20
2019-05-09T06:21:28.481Z,11.20
2019-05-09T06:24:00.819Z,11.20
2019-05-09T06:26:30.935Z,11.20
2019-05-09T06:29:02.468Z,11.10
2019-05-09T06:31:32.827Z,11.10
2019-05-09T06:34:02.948Z,11.00
2019-05-09T06:36:33.138Z,11.00
2019-05-09T06:39:08.164Z,11.00
2019-05-09T06:41:38.155Z,11.00
2019-05-09T06:44:23.445Z,10.90
2019-05-09T06:47:02.282Z,10.80
2019-05-09T06:49:37.734Z,10.80
2019-05-09T06:52:10.864Z,10.90
2019-05-09T06:54:43.280Z,11.20
2019-05-09T06:57:13.541Z,11.40
2019-05-09T06:59:45.368Z,11.70
2019-05-09T07:02:41.222Z,11.90
2019-05-09T07:05:25.682Z,12.20
2019-05-09T07:08:13.842Z,12.50
2019-05-09T07:10:44.019Z,12.60
2019-05-09T07:13:14.196Z,12.60
2019-05-09T07:15:44.272Z,12.80
2019-05-09T07:18:14.729Z,12.60
2019-05-09T07:20:44.811Z,12.80
2019-05-09T07:23:14.940Z,13.00
2019-05-09T07:26:10.201Z,13.10
2019-05-09T07:28:40.903Z,13.20
2019-05-09T07:31:37.949Z,13.60
2019-05-09T07:34:21.728Z,13.60
2019-05-09T07:36:52.008Z,13.80
2019-05-09T07:39:22.524Z,13.70
2019-05-09T07:41:52.954Z,13.40
2019-05-09T07:44:23.788Z,13.40
2019-05-09T07:47:07.574Z,13.50
2019-05-09T07:49:38.136Z,13.20
2019-05-09T07:52:10.396Z,13.10
2019-05-09T07:54:40.903Z,13.20
2019-05-09T07:57:12.113Z,13.10
2019-05-09T07:59:42.594Z,12.90
2019-05-09T08:02:17.684Z,12.80
2019-05-09T08:04:50.203Z,12.90
2019-05-09T08:07:23.025Z,13.00
2019-05-09T08:09:54.663Z,13.00
2019-05-09T08:12:25.121Z,13.00
2019-05-09T08:15:10.144Z,12.90
2019-05-09T08:17:28.598Z,12.90
2019-05-09T08:20:03.942Z,12.70
2019-05-09T08:23:21.956Z,12.60
2019-05-09T08:25:20.871Z,12.30
2019-05-09T08:27:48.095Z,12.30
2019-05-09T08:30:21.437Z,12.20
2019-05-09T08:32:54.849Z,12.10
2019-05-09T08:35:27.987Z,11.90
2019-05-09T08:37:58.362Z,12.00
2019-05-09T08:40:33.521Z,11.90
2019-05-09T08:43:03.989Z,11.80
2019-05-09T08:45:38.059Z,11.70
2019-05-09T08:48:09.705Z,11.70
2019-05-09T08:50:48.113Z,11.90
2019-05-09T08:53:18.995Z,11.90
2019-05-09T08:55:49.308Z,11.90
2019-05-09T08:58:20.057Z,11.90
2019-05-09T09:00:50.804Z,12.00
2019-05-09T09:03:21.010Z,12.00
2019-05-09T09:05:51.142Z,12.10
2019-05-09T09:08:21.416Z,11.90
2019-05-09T09:10:51.482Z,11.80
2019-05-09T09:13:21.624Z,11.90
2019-05-09T09:16:08.331Z,11.70
2019-05-09T09:18:24.360Z,11.80
2019-05-09T09:20:54.488Z,12.00
2019-05-09T09:23:39.750Z,12.00
2019-05-09T09:25:58.302Z,12.10
2019-05-09T09:28:28.749Z,11.90
2019-05-09T09:30:59.155Z,12.00
2019-05-09T09:33:29.484Z,12.10
2019-05-09T09:35:59.987Z,12.10
2019-05-09T09:38:30.360Z,12.10
2019-05-09T09:41:00.817Z,12.10
2019-05-09T09:43:31.136Z,12.20
2019-05-09T09:46:10.392Z,12.20
2019-05-09T09:48:33.375Z,12.50
2019-05-09T09:51:03.893Z,12.70
2019-05-09T09:53:34.045Z,12.80
2019-05-09T09:56:04.294Z,12.90
2019-05-09T09:58:34.536Z,12.80
2019-05-09T10:01:22.579Z,12.80
2019-05-09T10:04:15.519Z,12.90
2019-05-09T10:06:33.999Z,13.10
2019-05-09T10:09:05.510Z,13.10
2019-05-09T10:11:41.250Z,13.30
2019-05-09T10:14:18.496Z,13.50
2019-05-09T10:17:10.130Z,13.70
2019-05-09T10:20:05.772Z,13.90
2019-05-09T10:22:44.746Z,13.70
2019-05-09T10:25:18.328Z,13.70
2019-05-09T10:27:47.874Z,13.90
2019-05-09T10:30:22.281Z,14.00
2019-05-09T10:32:52.390Z,14.30
2019-05-09T10:35:24.153Z,14.50
2019-05-09T10:37:58.809Z,14.70
2019-05-09T10:40:28.112Z,14.90
2019-05-09T10:43:08.262Z,15.00
2019-05-09T10:45:48.314Z,15.10
2019-05-09T10:48:23.944Z,15.30
2019-05-09T10:50:53.882Z,15.60
2019-05-09T10:53:23.988Z,15.60
2019-05-09T10:55:57.204Z,15.00
2019-05-09T10:58:28.003Z,15.00
2019-05-09T11:00:58.810Z,14.90
2019-05-09T11:03:29.153Z,14.90
2019-05-09T11:05:59.230Z,15.10
2019-05-09T11:08:29.353Z,15.30
2019-05-09T11:10:59.464Z,15.60
2019-05-09T11:13:29.884Z,15.60
2019-05-09T11:16:00.105Z,15.40
2019-05-09T11:18:30.277Z,15.40
2019-05-09T11:21:00.761Z,15.20
2019-05-09T11:23:30.836Z,14.80
2019-05-09T11:26:00.988Z,14.80
2019-05-09T11:28:32.856Z,14.80
2019-05-09T11:31:03.145Z,15.20
2019-05-09T11:33:35.384Z,15.40
2019-05-09T11:36:09.448Z,15.40
2019-05-09T11:38:43.648Z,15.50
2019-05-09T11:41:11.636Z,15.20
2019-05-09T11:43:41.773Z,14.80
2019-05-09T11:46:11.991Z,14.50
2019-05-09T11:48:43.035Z,14.60
2019-05-09T11:51:13.358Z,14.60
2019-05-09T11:53:43.476Z,14.50
2019-05-09T11:56:13.613Z,14.20
2019-05-09T11:58:43.805Z,14.00
2019-05-09T12:01:13.953Z,13.80
2019-05-09T12:03:47.702Z,13.80
2019-05-09T12:06:20.679Z,13.50
2019-05-09T12:08:52.905Z,13.50
2019-05-09T12:11:25.584Z,13.50
2019-05-09T12:13:58.167Z,13.60
2019-05-09T12:16:28.207Z,14.00
2019-05-09T12:18:58.757Z,14.40
2019-05-09T12:21:29.283Z,14.80
2019-05-09T12:24:00.842Z,14.80
2019-05-09T12:26:33.998Z,15.10
2019-05-09T12:29:04.961Z,15.10
2019-05-09T12:31:38.397Z,14.60
2019-05-09T12:34:09.302Z,14.70
2019-05-09T12:36:41.078Z,14.70
2019-05-09T12:39:11.235Z,14.30
2019-05-09T12:41:41.440Z,14.70
2019-05-09T12:44:11.585Z,14.80
2019-05-09T12:46:41.716Z,15.00
2019-05-09T12:49:11.828Z,15.10
2019-05-09T12:51:42.206Z,15.30
2019-05-09T12:54:12.394Z,15.30
2019-05-09T12:56:42.531Z,15.40
2019-05-09T12:59:12.655Z,15.30
2019-05-09T13:01:44.655Z,15.40
2019-05-09T13:08:17.295Z,15.20
2019-05-09T13:11:08.779Z,15.50
2019-05-09T13:13:51.496Z,15.40
2019-05-09T13:17:08.111Z,15.30
2019-05-09T13:19:51.473Z,15.40
2019-05-09T13:25:51.646Z,14.90
2019-05-09T13:28:23.109Z,15.00
2019-05-09T13:30:53.942Z,15.00
2019-05-09T13:33:28.530Z,14.50
2019-05-09T13:35:58.476Z,14.40
2019-05-09T13:38:28.965Z,14.10
2019-05-09T13:40:59.217Z,13.80
2019-05-09T13:43:29.872Z,13.80
2019-05-09T13:46:00.045Z,13.80
2019-05-09T13:48:59.943Z,13.30
2019-05-09T13:51:04.930Z,13.20
2019-05-09T13:53:51.685Z,12.70
2019-05-09T13:56:22.033Z,12.70
2019-05-09T13:58:52.413Z,12.70
2019-05-09T14:01:22.601Z,12.90
2019-05-09T14:03:52.877Z,13.00
2019-05-09T14:06:23.068Z,12.80
2019-05-09T14:08:53.246Z,13.00
2019-05-09T14:11:23.953Z,13.30
2019-05-09T14:13:57.468Z,14.00
2019-05-09T14:16:28.655Z,14.30
2019-05-09T14:19:23.917Z,14.10
2019-05-09T14:21:37.959Z,13.80
2019-05-09T14:24:14.851Z,14.00
2019-05-09T14:26:40.866Z,13.90
2019-05-09T14:29:12.739Z,14.60
2019-05-09T14:31:42.902Z,14.70
2019-05-09T14:34:15.107Z,14.50
2019-05-09T14:36:46.104Z,14.40
2019-05-09T14:39:18.015Z,14.60
2019-05-09T14:41:48.330Z,14.80
2019-05-09T14:44:18.473Z,15.30
2019-05-09T14:46:48.739Z,15.60
2019-05-09T14:49:19.109Z,17.20
2019-05-09T14:51:50.159Z,17.60
2019-05-09T14:54:21.744Z,17.10
2019-05-09T14:57:00.512Z,15.90
2019-05-09T14:59:30.682Z,15.40
2019-05-09T15:02:01.952Z,14.40
2019-05-09T15:04:32.695Z,14.20
2019-05-09T15:07:03.129Z,14.00
2019-05-09T15:09:35.260Z,13.70
2019-05-09T15:12:06.790Z,13.60
2019-05-09T15:14:38.306Z,13.30
2019-05-09T15:17:09.282Z,13.50
2019-05-09T15:19:39.501Z,13.40
2019-05-09T15:22:12.210Z,13.40
2019-05-09T15:24:43.614Z,13.20
2019-05-09T15:27:17.725Z,13.00
2019-05-09T15:29:48.725Z,13.00
2019-05-09T15:32:24.794Z,13.00
2019-05-09T15:34:57.560Z,12.90
2019-05-09T15:37:28.589Z,12.70
2019-05-09T15:39:58.837Z,12.80
2019-05-09T15:42:30.598Z,13.00
2019-05-09T15:45:00.925Z,13.00
2019-05-09T15:47:37.661Z,13.10
2019-05-09T15:50:16.665Z,13.00
2019-05-09T15:52:39.968Z,13.10
2019-05-09T15:55:11.388Z,13.20
2019-05-09T15:57:41.718Z,13.30
2019-05-09T16:00:18.634Z,13.40
2019-05-09T16:02:48.478Z,14.20
2019-05-09T16:05:18.165Z,14.80
2019-05-09T16:07:48.621Z,16.30
2019-05-09T16:10:18.941Z,17.20
2019-05-09T16:12:49.083Z,17.00
2019-05-09T16:15:19.429Z,16.10
2019-05-09T16:17:49.676Z,15.40
2019-05-09T16:20:36.420Z,14.90
2019-05-09T16:22:57.220Z,14.30
2019-05-09T16:25:28.433Z,13.50
2019-05-09T16:27:58.806Z,13.80
2019-05-09T16:30:28.958Z,13.50
2019-05-09T16:33:01.510Z,13.30
2019-05-09T16:35:31.851Z,13.30
2019-05-09T16:38:07.978Z,13.30
2019-05-09T16:40:42.416Z,13.50
2019-05-09T16:43:13.437Z,14.00
2019-05-09T16:45:44.562Z,14.50
2019-05-09T16:48:21.144Z,14.90
2019-05-09T16:51:00.611Z,15.70
2019-05-09T16:53:24.039Z,15.80
2019-05-09T16:55:54.309Z,15.10
2019-05-09T16:58:27.449Z,14.20
2019-05-09T17:01:01.075Z,13.80
2019-05-09T17:03:31.245Z,13.60
2019-05-09T17:06:03.165Z,13.40
2019-05-09T17:08:33.483Z,13.40
2019-05-09T17:11:07.610Z,13.40
2019-05-09T17:13:37.985Z,13.40
2019-05-09T17:16:13.323Z,13.60
2019-05-09T17:18:48.996Z,13.70
2019-05-09T17:21:50.251Z,13.80
2019-05-09T17:24:25.272Z,13.80
2019-05-09T17:27:00.461Z,13.80
2019-05-09T17:29:32.038Z,13.70
2019-05-09T17:32:25.407Z,13.40
2019-05-09T17:34:58.265Z,13.20
2019-05-09T17:37:29.214Z,13.10
2019-05-09T17:39:59.556Z,12.80
2019-05-09T17:42:29.801Z,12.70
2019-05-09T17:45:01.066Z,12.80
2019-05-09T17:47:33.146Z,12.90
2019-05-09T17:50:04.867Z,13.00
2019-05-09T17:52:37.111Z,12.80
2019-05-09T17:55:07.513Z,12.80
2019-05-09T17:57:38.819Z,12.80
2019-05-09T18:00:12.213Z,12.90
2019-05-09T18:02:43.529Z,12.90
2019-05-09T18:05:17.618Z,12.90
2019-05-09T18:07:50.940Z,13.00
2019-05-09T18:10:24.426Z,13.00
2019-05-09T18:12:55.445Z,12.90
2019-05-09T18:15:28.279Z,12.80
2019-05-09T18:18:01.804Z,12.70
2019-05-09T18:20:34.867Z,12.60
2019-05-09T18:23:07.867Z,12.50
2019-05-09T18:25:41.409Z,12.40
2019-05-09T18:28:17.304Z,12.30
2019-05-09T18:30:49.037Z,12.30
2019-05-09T18:33:48.576Z,12.20
2019-05-09T18:36:21.899Z,12.20
2019-05-09T18:38:58.556Z,12.20
2019-05-09T18:41:32.653Z,12.10
2019-05-09T18:44:03.771Z,12.00
2019-05-09T18:46:36.470Z,12.00
2019-05-09T18:49:07.907Z,12.10
2019-05-09T18:51:38.644Z,11.90
2019-05-09T18:54:10.090Z,12.00
2019-05-09T18:56:41.380Z,11.90
2019-05-09T18:59:14.677Z,11.90
2019-05-09T19:01:47.866Z,11.90
2019-05-09T19:04:21.020Z,11.90
2019-05-09T19:06:54.930Z,11.90
2019-05-09T19:09:28.356Z,11.90
2019-05-09T19:12:08.083Z,11.80
2019-05-09T19:14:39.852Z,11.80
2019-05-09T19:17:41.195Z,11.90
2019-05-09T19:20:24.560Z,11.90
2019-05-09T19:22:55.182Z,11.90
2019-05-09T19:25:26.603Z,11.90
2019-05-09T19:27:58.940Z,11.80
2019-05-09T19:30:30.826Z,11.90
2019-05-09T19:33:01.842Z,11.90
2019-05-09T19:35:32.364Z,11.90
2019-05-09T19:38:03.206Z,11.90
2019-05-09T19:40:33.663Z,11.80
2019-05-09T19:43:18.072Z,11.70
2019-05-09T19:45:53.044Z,11.70
2019-05-09T19:48:24.562Z,11.60
2019-05-09T19:51:05.185Z,11.60
2019-05-09T19:53:37.785Z,11.50
2019-05-09T19:56:11.042Z,11.50
2019-05-09T19:58:42.936Z,11.40
2019-05-09T20:01:14.995Z,11.30
2019-05-09T20:03:45.188Z,11.40
2019-05-09T20:06:23.161Z,11.30
2019-05-09T20:08:55.248Z,11.30
2019-05-09T20:11:33.279Z,11.30
2019-05-09T20:14:18.483Z,11.30
2019-05-09T20:17:10.598Z,11.20
2019-05-09T20:19:43.393Z,11.20
2019-05-09T20:22:14.871Z,11.20
2019-05-09T20:24:48.154Z,11.20
2019-05-09T20:27:24.584Z,11.10
2019-05-09T20:29:58.750Z,11.10
2019-05-09T20:32:35.868Z,11.10
2019-05-09T20:35:11.853Z,11.00
2019-05-09T20:37:43.246Z,11.00
2019-05-09T20:40:18.609Z,11.00
2019-05-09T20:42:51.836Z,11.00
2019-05-09T20:45:23.091Z,11.00
2019-05-09T20:48:00.125Z,11.00
2019-05-09T20:50:32.328Z,11.00
2019-05-09T20:53:09.526Z,10.90
2019-05-09T20:55:36.023Z,10.90
2019-05-09T20:58:07.404Z,10.90
2019-05-09T21:00:44.265Z,10.90
2019-05-09T21:03:15.731Z,10.90
2019-05-09T21:05:51.437Z,10.90
2019-05-09T21:08:26.518Z,10.90
2019-05-09T21:10:57.553Z,10.80
2019-05-09T21:13:47.088Z,10.80
2019-05-09T21:16:09.152Z,10.80
2019-05-09T21:18:39.818Z,10.80
2019-05-09T21:21:10.496Z,10.80
2019-05-09T21:23:42.010Z,10.80
2019-05-09T21:26:12.589Z,10.70
2019-05-09T21:28:43.261Z,10.70
2019-05-09T21:31:13.931Z,10.70
2019-05-09T21:33:45.908Z,10.60
2019-05-09T21:36:19.309Z,10.60
2019-05-09T21:38:52.872Z,10.60
2019-05-09T21:41:26.204Z,10.60
2019-05-09T21:43:59.443Z,10.60
2019-05-09T21:46:31.636Z,10.50
2019-05-09T21:49:02.262Z,10.60
2019-05-09T21:51:33.970Z,10.60
2019-05-09T21:54:09.871Z,10.50
2019-05-09T21:56:39.942Z,10.50
2019-05-09T21:59:14.476Z,10.50
2019-05-09T22:01:49.575Z,10.40
2019-05-09T22:04:19.782Z,10.40
2019-05-09T22:06:52.059Z,10.30
2019-05-09T22:09:22.231Z,10.40
2019-05-09T22:11:53.256Z,10.50
2019-05-09T22:14:26.269Z,10.50
2019-05-09T22:16:58.378Z,10.50
2019-05-09T22:19:34.769Z,10.60
2019-05-09T22:22:06.416Z,10.60
2019-05-09T22:24:41.972Z,10.60
2019-05-09T22:27:35.853Z,10.60
2019-05-09T22:30:08.292Z,10.60
2019-05-09T22:32:38.865Z,10.60
2019-05-09T22:35:11.917Z,10.60
2019-05-09T22:37:45.616Z,10.60
2019-05-09T22:40:19.860Z,10.50
2019-05-09T22:42:50.551Z,10.50
2019-05-09T22:45:23.281Z,10.50
2019-05-09T22:47:53.529Z,10.60
2019-05-09T22:50:25.079Z,10.50
2019-05-09T22:52:55.614Z,10.50
2019-05-09T22:55:27.318Z,10.50
2019-05-09T22:58:00.310Z,10.50
2019-05-09T23:00:30.485Z,10.50
2019-05-09T23:03:08.648Z,10.50
2019-05-09T23:05:38.841Z,10.50
2019-05-09T23:08:10.269Z,10.50
2019-05-09T23:10:40.721Z,10.40
2019-05-09T23:13:10.860Z,10.50
2019-05-09T23:15:46.565Z,10.40
2019-05-09T23:18:16.636Z,10.40
2019-05-09T23:21:10.878Z,10.40
2019-05-09T23:23:46.118Z,10.30
2019-05-09T23:26:21.937Z,10.30
2019-05-09T23:28:52.024Z,10.30
2019-05-09T23:31:34.419Z,10.30
2019-05-09T23:34:05.360Z,10.30
2019-05-09T23:36:36.288Z,10.20
2019-05-09T23:39:21.096Z,10.20
2019-05-09T23:41:51.853Z,10.10
2019-05-09T23:44:22.108Z,10.00
2019-05-09T23:46:52.644Z,10.00
2019-05-09T23:49:24.059Z,9.90
2019-05-09T23:51:54.955Z,9.90
2019-05-09T23:54:46.784Z,9.80
2019-05-09T23:57:34.089Z,9.70
